createdAt,value
2023-01-13T00:01:57.887Z,92.97
2023-01-13T00:04:36.832Z,92.87
2023-01-13T00:07:24.135Z,92.88
2023-01-13T00:10:02.964Z,92.90
2023-01-13T00:13:00.317Z,92.87
2023-01-13T00:15:33.409Z,92.92
2023-01-13T00:18:16.169Z,93.06
2023-01-13T00:21:18.165Z,92.98
2023-01-13T00:23:55.771Z,92.93
2023-01-13T00:26:28.617Z,92.83
2023-01-13T00:29:13.179Z,92.99
2023-01-13T00:31:41.759Z,93.19
2023-01-13T00:34:20.614Z,92.89
2023-01-13T00:36:59.203Z,93.03
2023-01-13T00:39:29.835Z,92.92
2023-01-13T00:42:21.469Z,93.10
2023-01-13T00:44:51.579Z,93.05
2023-01-13T00:47:21.495Z,93.18
2023-01-13T00:49:55.096Z,93.13
2023-01-13T00:52:22.452Z,93.33
2023-01-13T00:54:52.323Z,93.37
2023-01-13T00:57:19.518Z,93.46
2023-01-13T00:59:52.615Z,93.34
2023-01-13T01:02:19.988Z,93.31
2023-01-13T01:04:47.111Z,93.25
2023-01-13T01:07:14.574Z,93.39
2023-01-13T01:09:42.028Z,93.43
2023-01-13T01:12:09.502Z,93.55
2023-01-13T01:14:47.906Z,93.47
2023-01-13T01:17:22.529Z,93.53
2023-01-13T01:19:51.812Z,93.47
2023-01-13T01:22:22.120Z,93.65
2023-01-13T01:24:49.587Z,93.79
2023-01-13T01:27:21.858Z,93.60
2023-01-13T01:29:58.598Z,93.55
2023-01-13T01:32:26.027Z,93.67
2023-01-13T01:34:55.592Z,93.69
2023-01-13T01:37:25.303Z,93.69
2023-01-13T01:39:55.010Z,93.69
2023-01-13T01:42:41.421Z,93.76
2023-01-13T01:45:23.106Z,93.83
2023-01-13T01:47:57.337Z,93.82
2023-01-13T01:50:27.903Z,93.80
2023-01-13T01:53:17.014Z,93.84
2023-01-13T01:55:44.396Z,93.71
2023-01-13T01:58:23.842Z,93.71
2023-01-13T02:01:01.996Z,93.54
2023-01-13T02:03:39.313Z,93.55
2023-01-13T02:06:09.302Z,93.60
2023-01-13T02:08:38.807Z,93.69
2023-01-13T02:11:51.687Z,93.46
2023-01-13T02:14:19.743Z,93.21
2023-01-13T02:16:54.408Z,93.33
2023-01-13T02:19:40.157Z,93.39
2023-01-13T02:22:19.605Z,93.58
2023-01-13T02:25:14.598Z,93.44
2023-01-13T02:27:48.505Z,93.22
2023-01-13T02:30:45.869Z,93.30
2023-01-13T02:33:43.249Z,93.29
2023-01-13T02:36:23.588Z,93.65
2023-01-13T02:39:20.741Z,93.77
2023-01-13T02:42:21.686Z,94.05
2023-01-13T02:45:17.005Z,93.80
2023-01-13T02:48:07.676Z,93.82
2023-01-13T02:51:03.108Z,93.61
2023-01-13T02:53:40.492Z,93.72
2023-01-13T02:56:22.805Z,93.66
2023-01-13T02:59:30.391Z,94.00
2023-01-13T03:02:07.891Z,93.94
2023-01-13T03:05:25.442Z,94.19
2023-01-13T03:08:24.984Z,94.00
2023-01-13T03:11:24.649Z,94.09
2023-01-13T03:14:22.753Z,94.10
2023-01-13T03:17:32.167Z,94.30
2023-01-13T03:20:23.272Z,94.29
2023-01-13T03:23:03.836Z,94.42
2023-01-13T03:26:00.684Z,94.50
2023-01-13T03:28:44.229Z,94.51
2023-01-13T03:31:18.906Z,94.34
2023-01-13T03:34:03.213Z,94.20
2023-01-13T03:36:33.707Z,94.01
2023-01-13T03:39:29.442Z,94.17
2023-01-13T03:42:03.800Z,94.35
2023-01-13T03:44:40.734Z,94.30
2023-01-13T03:47:32.471Z,94.37
2023-01-13T03:50:31.845Z,94.37
2023-01-13T03:53:21.057Z,94.34
2023-01-13T03:55:50.948Z,94.47
2023-01-13T03:58:50.623Z,94.41
2023-01-13T04:01:54.548Z,94.19
2023-01-13T04:04:31.770Z,94.14
2023-01-13T04:07:09.266Z,94.12
2023-01-13T04:10:08.890Z,94.22
2023-01-13T04:13:01.947Z,94.04
2023-01-13T04:15:34.590Z,93.80
2023-01-13T04:18:12.419Z,93.97
2023-01-13T04:20:40.284Z,93.92
2023-01-13T04:23:07.839Z,93.93
2023-01-13T04:25:40.725Z,93.93
2023-01-13T04:28:07.978Z,93.99
2023-01-13T04:30:35.236Z,93.93
2023-01-13T04:33:04.432Z,93.86
2023-01-13T04:35:34.449Z,94.06
2023-01-13T04:38:08.502Z,94.07
2023-01-13T04:40:35.817Z,93.79
2023-01-13T04:43:10.811Z,93.69
2023-01-13T04:45:38.207Z,93.52
2023-01-13T04:48:05.773Z,93.65
2023-01-13T04:50:33.230Z,93.51
2023-01-13T04:53:03.344Z,93.74
2023-01-13T04:55:32.036Z,93.60
2023-01-13T04:58:06.613Z,93.26
2023-01-13T05:00:33.832Z,93.34
2023-01-13T05:03:03.412Z,93.32
2023-01-13T05:05:35.791Z,93.25
2023-01-13T05:08:03.458Z,93.29
2023-01-13T05:10:30.703Z,93.35
2023-01-13T05:13:16.507Z,93.19
2023-01-13T05:16:04.652Z,93.19
2023-01-13T05:18:33.222Z,93.44
2023-01-13T05:21:25.855Z,93.02
2023-01-13T05:24:11.540Z,92.92
2023-01-13T05:26:38.508Z,92.89
2023-01-13T05:29:05.845Z,93.05
2023-01-13T05:31:36.503Z,93.20
2023-01-13T05:34:06.844Z,93.22
2023-01-13T05:36:36.576Z,93.16
2023-01-13T05:39:06.994Z,93.08
2023-01-13T05:41:55.748Z,93.21
2023-01-13T05:44:26.181Z,92.77
2023-01-13T05:47:00.709Z,92.89
2023-01-13T05:49:27.962Z,93.10
2023-01-13T05:51:55.220Z,93.11
2023-01-13T05:54:22.469Z,92.94
2023-01-13T05:56:49.617Z,93.17
2023-01-13T05:59:17.281Z,93.14
2023-01-13T06:01:47.607Z,92.99
2023-01-13T06:04:15.087Z,93.15
2023-01-13T12:18:22.721Z,95.28
2023-01-13T12:21:00.320Z,93.36
2023-01-13T12:23:34.910Z,92.93
2023-01-13T12:26:07.114Z,92.58
2023-01-13T12:28:45.276Z,92.75
2023-01-13T12:31:12.799Z,92.62
2023-01-13T12:33:55.694Z,92.43
2023-01-13T12:36:28.887Z,92.12
2023-01-13T12:39:10.583Z,91.86
2023-01-13T12:42:10.910Z,91.28
2023-01-13T12:44:37.968Z,90.96
2023-01-13T12:47:05.006Z,91.17
2023-01-13T12:49:33.325Z,91.10
2023-01-13T12:52:03.622Z,90.68
2023-01-13T12:54:30.663Z,90.81
2023-01-13T12:56:58.735Z,90.45
2023-01-13T12:59:25.782Z,90.58
2023-01-13T13:02:11.710Z,90.25
2023-01-13T13:04:49.938Z,89.88
2023-01-13T13:07:23.830Z,89.70
2023-01-13T13:09:59.952Z,89.70
2023-01-13T13:12:52.497Z,89.62
2023-01-13T13:15:23.849Z,89.68
2023-01-13T13:18:01.638Z,89.50
2023-01-13T13:21:03.754Z,89.21
2023-01-13T13:23:43.758Z,89.39
2023-01-13T13:26:35.978Z,89.55
2023-01-13T13:29:29.471Z,89.65
2023-01-13T13:32:22.524Z,89.89
2023-01-13T13:35:13.437Z,90.02
2023-01-13T13:38:32.507Z,89.86
2023-01-13T13:41:18.595Z,89.85
2023-01-13T13:44:04.493Z,89.71
2023-01-13T13:46:49.976Z,90.10
2023-01-13T13:49:22.027Z,90.18
2023-01-13T13:51:55.356Z,90.01
2023-01-13T13:54:22.683Z,90.41
2023-01-13T19:59:29.515Z,98.43
2023-01-13T20:01:57.510Z,97.56
2023-01-13T20:04:38.051Z,97.22
2023-01-13T20:07:06.125Z,97.14
2023-01-13T20:09:36.629Z,96.89
2023-01-13T20:12:15.272Z,97.14
2023-01-13T20:14:47.543Z,97.07
2023-01-13T20:17:15.373Z,96.94
2023-01-13T20:19:42.557Z,96.66
2023-01-13T20:22:09.810Z,96.35
2023-01-13T20:24:36.979Z,95.98
2023-01-13T20:27:04.421Z,95.86
2023-01-13T20:29:31.569Z,95.43
2023-01-13T20:31:58.820Z,95.43
2023-01-13T20:34:26.086Z,95.28
2023-01-13T20:36:53.428Z,95.34
2023-01-13T20:39:22.423Z,94.81
2023-01-13T20:42:08.312Z,94.64
2023-01-13T20:44:35.626Z,94.36
2023-01-13T20:47:03.136Z,94.37
2023-01-13T20:49:30.694Z,93.97
2023-01-13T20:52:01.421Z,94.01
2023-01-13T20:54:28.673Z,94.12
2023-01-13T20:56:55.935Z,93.69
2023-01-13T20:59:23.281Z,93.73
2023-01-13T21:01:50.769Z,93.64
2023-01-13T21:04:18.104Z,93.35
2023-01-13T21:06:45.241Z,93.50
2023-01-13T21:09:12.399Z,92.95
2023-01-13T21:25:21.848Z,90.27
2023-01-13T21:27:48.908Z,88.93
2023-01-13T21:30:17.181Z,88.89
2023-01-13T21:32:44.563Z,88.71
2023-01-13T21:35:12.314Z,88.69
2023-01-13T21:37:39.965Z,88.51
2023-01-13T21:40:08.141Z,88.26
2023-01-13T21:42:54.135Z,88.56
2023-01-13T21:45:40.365Z,88.55
2023-01-13T21:48:10.538Z,88.08
2023-01-13T21:50:41.215Z,87.96
2023-01-13T21:53:08.428Z,88.29
2023-01-13T21:55:37.017Z,88.76
2023-01-13T21:58:12.557Z,89.02
2023-01-13T22:00:41.044Z,88.83
2023-01-13T22:03:08.829Z,89.09
2023-01-13T22:05:36.373Z,89.24
2023-01-13T22:08:04.345Z,89.37
2023-01-13T22:10:32.099Z,89.25
2023-01-13T22:13:20.650Z,88.91
2023-01-13T22:15:47.804Z,88.98
2023-01-13T22:18:14.951Z,89.20
2023-01-13T22:20:42.382Z,89.13
2023-01-13T22:23:09.458Z,89.36
2023-01-13T22:25:37.122Z,89.23
2023-01-13T22:28:06.322Z,89.08
2023-01-13T22:30:33.466Z,89.17
2023-01-13T22:33:00.548Z,88.99
2023-01-13T22:35:27.679Z,89.01
2023-01-13T22:37:54.721Z,88.81
2023-01-13T22:40:21.781Z,88.73
2023-01-13T22:42:49.016Z,88.64
2023-01-13T22:45:16.323Z,88.57
2023-01-13T22:47:43.532Z,88.68
2023-01-13T22:50:12.767Z,88.88
2023-01-13T22:52:40.001Z,88.70
2023-01-13T22:55:07.775Z,88.78
2023-01-13T22:57:46.767Z,88.59
2023-01-13T23:00:19.253Z,88.55
2023-01-13T23:02:46.932Z,88.36
2023-01-13T23:05:14.098Z,88.65
2023-01-13T23:07:41.636Z,89.07
2023-01-13T23:10:09.592Z,89.01
2023-01-13T23:12:36.956Z,88.80
2023-01-13T23:15:05.528Z,88.52
2023-01-13T23:17:32.631Z,88.72
2023-01-13T23:19:59.837Z,88.58
2023-01-13T23:22:26.792Z,88.87
2023-01-13T23:24:53.826Z,88.91
2023-01-13T23:27:20.873Z,89.29
2023-01-13T23:29:47.825Z,89.23
2023-01-13T23:32:14.770Z,89.20
2023-01-13T23:34:41.919Z,89.09
2023-01-13T23:37:09.052Z,88.94
2023-01-13T23:39:36.215Z,88.69
2023-01-13T23:42:03.591Z,89.05
2023-01-13T23:44:30.825Z,89.04
2023-01-13T23:46:58.383Z,89.16
2023-01-13T23:49:25.433Z,89.28
2023-01-13T23:51:52.889Z,89.16
2023-01-13T23:54:20.241Z,89.35
2023-01-13T23:56:49.424Z,89.25
2023-01-13T23:59:16.593Z,89.12
